sensor_id;sensor_type;location;lat;lon;timestamp;P1;durP1;ratioP1;P2;durP2;ratioP2
26598;SDS011;14240;51.064;16.612;2022-11-20T00:02:25;121.63;;;37.13;;
26598;SDS011;14240;51.064;16.612;2022-11-20T00:04:50;118.30;;;36.25;;
26598;SDS011;14240;51.064;16.612;2022-11-20T00:07:16;78.18;;;26.00;;
26598;SDS011;14240;51.064;16.612;2022-11-20T00:09:42;61.72;;;20.75;;
26598;SDS011;14240;51.064;16.612;2022-11-20T00:12:07;61.72;;;21.02;;
26598;SDS011;14240;51.064;16.612;2022-11-20T00:14:33;49.17;;;18.38;;
26598;SDS011;14240;51.064;16.612;2022-11-20T00:16:59;48.67;;;20.35;;
26598;SDS011;14240;51.064;16.612;2022-11-20T00:19:25;54.35;;;22.60;;
26598;SDS011;14240;51.064;16.612;2022-11-20T00:21:50;57.15;;;22.58;;
26598;SDS011;14240;51.064;16.612;2022-11-20T00:26:44;47.78;;;18.33;;
26598;SDS011;14240;51.064;16.612;2022-11-20T00:29:10;49.58;;;17.38;;
26598;SDS011;14240;51.064;16.612;2022-11-20T00:31:35;46.92;;;18.35;;
26598;SDS011;14240;51.064;16.612;2022-11-20T00:34:01;51.95;;;20.05;;
26598;SDS011;14240;51.064;16.612;2022-11-20T00:36:28;52.08;;;20.10;;
26598;SDS011;14240;51.064;16.612;2022-11-20T00:38:57;48.50;;;18.83;;
26598;SDS011;14240;51.064;16.612;2022-11-20T00:41:23;42.13;;;16.95;;
26598;SDS011;14240;51.064;16.612;2022-11-20T00:43:51;40.63;;;16.98;;
26598;SDS011;14240;51.064;16.612;2022-11-20T00:46:19;47.58;;;18.17;;
26598;SDS011;14240;51.064;16.612;2022-11-20T00:48:47;47.00;;;17.58;;
26598;SDS011;14240;51.064;16.612;2022-11-20T00:51:14;45.63;;;17.65;;
26598;SDS011;14240;51.064;16.612;2022-11-20T00:53:41;42.78;;;16.85;;
26598;SDS011;14240;51.064;16.612;2022-11-20T00:56:07;42.13;;;16.60;;
26598;SDS011;14240;51.064;16.612;2022-11-20T00:58:37;43.25;;;20.83;;
26598;SDS011;14240;51.064;16.612;2022-11-20T01:01:05;49.78;;;20.27;;
26598;SDS011;14240;51.064;16.612;2022-11-20T01:03:36;51.42;;;18.67;;
26598;SDS011;14240;51.064;16.612;2022-11-20T01:06:05;48.65;;;19.42;;
26598;SDS011;14240;51.064;16.612;2022-11-20T01:08:33;43.90;;;17.00;;
26598;SDS011;14240;51.064;16.612;2022-11-20T01:11:04;46.90;;;17.88;;
26598;SDS011;14240;51.064;16.612;2022-11-20T01:13:35;46.40;;;17.60;;
26598;SDS011;14240;51.064;16.612;2022-11-20T01:16:05;42.53;;;17.85;;
26598;SDS011;14240;51.064;16.612;2022-11-20T01:18:43;46.15;;;17.58;;
26598;SDS011;14240;51.064;16.612;2022-11-20T01:21:11;38.15;;;16.67;;
26598;SDS011;14240;51.064;16.612;2022-11-20T01:23:42;49.92;;;19.63;;
26598;SDS011;14240;51.064;16.612;2022-11-20T01:26:09;42.58;;;16.63;;
26598;SDS011;14240;51.064;16.612;2022-11-20T01:28:37;40.13;;;17.05;;
26598;SDS011;14240;51.064;16.612;2022-11-20T01:31:36;42.95;;;18.83;;
26598;SDS011;14240;51.064;16.612;2022-11-20T01:33:58;48.47;;;15.65;;
26598;SDS011;14240;51.064;16.612;2022-11-20T01:36:28;41.15;;;16.95;;
26598;SDS011;14240;51.064;16.612;2022-11-20T01:38:56;41.33;;;15.77;;
26598;SDS011;14240;51.064;16.612;2022-11-20T01:41:29;40.10;;;14.05;;
26598;SDS011;14240;51.064;16.612;2022-11-20T01:44:16;40.63;;;15.45;;
26598;SDS011;14240;51.064;16.612;2022-11-20T01:47:05;42.60;;;16.65;;
26598;SDS011;14240;51.064;16.612;2022-11-20T01:49:39;44.38;;;16.23;;
26598;SDS011;14240;51.064;16.612;2022-11-20T01:52:14;36.53;;;15.38;;
26598;SDS011;14240;51.064;16.612;2022-11-20T01:54:56;41.80;;;15.75;;
26598;SDS011;14240;51.064;16.612;2022-11-20T01:57:29;36.20;;;14.75;;
26598;SDS011;14240;51.064;16.612;2022-11-20T01:59:57;43.33;;;13.18;;
26598;SDS011;14240;51.064;16.612;2022-11-20T02:02:26;35.65;;;13.52;;
26598;SDS011;14240;51.064;16.612;2022-11-20T02:04:53;32.33;;;14.57;;
26598;SDS011;14240;51.064;16.612;2022-11-20T02:07:22;40.30;;;16.35;;
26598;SDS011;14240;51.064;16.612;2022-11-20T02:09:49;38.28;;;14.60;;
26598;SDS011;14240;51.064;16.612;2022-11-20T02:12:15;42.83;;;15.88;;
26598;SDS011;14240;51.064;16.612;2022-11-20T02:14:59;39.22;;;14.63;;
26598;SDS011;14240;51.064;16.612;2022-11-20T02:17:25;35.22;;;13.75;;
26598;SDS011;14240;51.064;16.612;2022-11-20T02:19:51;39.03;;;14.05;;
26598;SDS011;14240;51.064;16.612;2022-11-20T02:22:19;39.78;;;14.90;;
26598;SDS011;14240;51.064;16.612;2022-11-20T02:24:52;36.13;;;14.20;;
26598;SDS011;14240;51.064;16.612;2022-11-20T02:27:18;34.95;;;13.35;;
26598;SDS011;14240;51.064;16.612;2022-11-20T02:29:49;38.72;;;13.82;;
26598;SDS011;14240;51.064;16.612;2022-11-20T02:34:47;39.35;;;13.77;;
26598;SDS011;14240;51.064;16.612;2022-11-20T02:37:13;41.72;;;16.73;;
26598;SDS011;14240;51.064;16.612;2022-11-20T02:39:39;34.13;;;15.23;;
26598;SDS011;14240;51.064;16.612;2022-11-20T02:42:06;37.65;;;14.60;;
26598;SDS011;14240;51.064;16.612;2022-11-20T02:44:31;38.05;;;15.00;;
26598;SDS011;14240;51.064;16.612;2022-11-20T02:46:57;35.40;;;14.02;;
26598;SDS011;14240;51.064;16.612;2022-11-20T02:49:24;36.00;;;14.30;;
26598;SDS011;14240;51.064;16.612;2022-11-20T02:51:49;31.05;;;13.02;;
26598;SDS011;14240;51.064;16.612;2022-11-20T02:54:15;32.80;;;12.45;;
26598;SDS011;14240;51.064;16.612;2022-11-20T02:56:41;37.17;;;13.82;;
26598;SDS011;14240;51.064;16.612;2022-11-20T02:59:06;31.80;;;13.18;;
26598;SDS011;14240;51.064;16.612;2022-11-20T03:01:32;30.23;;;12.48;;
26598;SDS011;14240;51.064;16.612;2022-11-20T03:03:58;28.05;;;12.10;;
26598;SDS011;14240;51.064;16.612;2022-11-20T03:06:24;32.30;;;11.70;;
26598;SDS011;14240;51.064;16.612;2022-11-20T03:08:50;31.73;;;12.50;;
26598;SDS011;14240;51.064;16.612;2022-11-20T03:11:15;31.15;;;11.57;;
26598;SDS011;14240;51.064;16.612;2022-11-20T03:13:42;37.55;;;12.68;;
26598;SDS011;14240;51.064;16.612;2022-11-20T03:16:15;36.20;;;12.77;;
26598;SDS011;14240;51.064;16.612;2022-11-20T03:18:42;34.33;;;12.50;;
26598;SDS011;14240;51.064;16.612;2022-11-20T03:21:09;33.67;;;12.85;;
26598;SDS011;14240;51.064;16.612;2022-11-20T03:23:36;43.33;;;15.80;;
26598;SDS011;14240;51.064;16.612;2022-11-20T03:28:47;39.15;;;14.63;;
26598;SDS011;14240;51.064;16.612;2022-11-20T03:31:15;41.50;;;16.17;;
26598;SDS011;14240;51.064;16.612;2022-11-20T03:33:43;32.47;;;14.65;;
26598;SDS011;14240;51.064;16.612;2022-11-20T03:36:09;36.55;;;14.73;;
26598;SDS011;14240;51.064;16.612;2022-11-20T03:38:37;34.67;;;13.75;;
26598;SDS011;14240;51.064;16.612;2022-11-20T03:41:04;36.33;;;14.15;;
26598;SDS011;14240;51.064;16.612;2022-11-20T03:43:32;33.70;;;13.55;;
26598;SDS011;14240;51.064;16.612;2022-11-20T03:45:58;37.22;;;14.15;;
26598;SDS011;14240;51.064;16.612;2022-11-20T03:48:23;37.15;;;15.70;;
26598;SDS011;14240;51.064;16.612;2022-11-20T03:50:50;36.25;;;14.82;;
26598;SDS011;14240;51.064;16.612;2022-11-20T03:53:16;34.17;;;13.20;;
26598;SDS011;14240;51.064;16.612;2022-11-20T03:55:42;34.20;;;14.32;;
26598;SDS011;14240;51.064;16.612;2022-11-20T03:58:08;37.78;;;14.38;;
26598;SDS011;14240;51.064;16.612;2022-11-20T04:00:34;34.65;;;14.60;;
26598;SDS011;14240;51.064;16.612;2022-11-20T04:03:00;38.13;;;15.25;;
26598;SDS011;14240;51.064;16.612;2022-11-20T04:05:27;43.03;;;15.65;;
26598;SDS011;14240;51.064;16.612;2022-11-20T04:07:53;46.60;;;16.65;;
26598;SDS011;14240;51.064;16.612;2022-11-20T04:10:18;35.75;;;14.68;;
26598;SDS011;14240;51.064;16.612;2022-11-20T04:12:44;37.38;;;15.00;;
26598;SDS011;14240;51.064;16.612;2022-11-20T04:15:10;182.23;;;57.78;;
26598;SDS011;14240;51.064;16.612;2022-11-20T04:17:36;60.88;;;24.02;;
26598;SDS011;14240;51.064;16.612;2022-11-20T04:20:01;37.60;;;17.10;;
26598;SDS011;14240;51.064;16.612;2022-11-20T04:22:28;42.83;;;14.95;;
26598;SDS011;14240;51.064;16.612;2022-11-20T04:24:53;38.63;;;15.75;;
26598;SDS011;14240;51.064;16.612;2022-11-20T04:27:19;35.30;;;14.07;;
26598;SDS011;14240;51.064;16.612;2022-11-20T04:29:45;41.15;;;15.27;;
26598;SDS011;14240;51.064;16.612;2022-11-20T04:32:10;35.75;;;15.02;;
26598;SDS011;14240;51.064;16.612;2022-11-20T04:34:36;33.20;;;15.32;;
26598;SDS011;14240;51.064;16.612;2022-11-20T04:37:02;34.10;;;13.73;;
26598;SDS011;14240;51.064;16.612;2022-11-20T04:39:27;33.95;;;15.07;;
26598;SDS011;14240;51.064;16.612;2022-11-20T04:41:53;37.10;;;14.25;;
26598;SDS011;14240;51.064;16.612;2022-11-20T04:44:39;35.75;;;13.85;;
26598;SDS011;14240;51.064;16.612;2022-11-20T04:47:04;37.20;;;13.25;;
26598;SDS011;14240;51.064;16.612;2022-11-20T04:49:30;30.52;;;12.60;;
26598;SDS011;14240;51.064;16.612;2022-11-20T04:51:56;38.72;;;16.10;;
26598;SDS011;14240;51.064;16.612;2022-11-20T04:54:25;39.97;;;17.02;;
26598;SDS011;14240;51.064;16.612;2022-11-20T04:56:57;38.90;;;15.45;;
26598;SDS011;14240;51.064;16.612;2022-11-20T04:59:23;37.50;;;15.57;;
26598;SDS011;14240;51.064;16.612;2022-11-20T05:01:48;31.85;;;12.90;;
26598;SDS011;14240;51.064;16.612;2022-11-20T05:04:14;31.65;;;12.10;;
26598;SDS011;14240;51.064;16.612;2022-11-20T05:06:40;38.15;;;16.75;;
26598;SDS011;14240;51.064;16.612;2022-11-20T05:09:08;36.42;;;16.70;;
26598;SDS011;14240;51.064;16.612;2022-11-20T05:11:34;31.40;;;13.40;;
26598;SDS011;14240;51.064;16.612;2022-11-20T05:14:00;39.80;;;13.98;;
26598;SDS011;14240;51.064;16.612;2022-11-20T05:16:25;35.15;;;14.65;;
26598;SDS011;14240;51.064;16.612;2022-11-20T05:18:52;35.70;;;13.60;;
26598;SDS011;14240;51.064;16.612;2022-11-20T05:21:20;58.08;;;22.67;;
26598;SDS011;14240;51.064;16.612;2022-11-20T05:23:46;52.88;;;22.00;;
26598;SDS011;14240;51.064;16.612;2022-11-20T05:26:18;50.08;;;19.65;;
26598;SDS011;14240;51.064;16.612;2022-11-20T05:28:49;33.97;;;13.47;;
26598;SDS011;14240;51.064;16.612;2022-11-20T05:31:19;34.17;;;12.52;;
26598;SDS011;14240;51.064;16.612;2022-11-20T05:33:46;41.63;;;14.63;;
26598;SDS011;14240;51.064;16.612;2022-11-20T05:36:13;35.60;;;14.63;;
26598;SDS011;14240;51.064;16.612;2022-11-20T05:38:39;33.70;;;12.90;;
26598;SDS011;14240;51.064;16.612;2022-11-20T05:43:39;39.47;;;13.63;;
26598;SDS011;14240;51.064;16.612;2022-11-20T05:46:06;31.63;;;12.98;;
26598;SDS011;14240;51.064;16.612;2022-11-20T05:48:34;36.10;;;12.80;;
26598;SDS011;14240;51.064;16.612;2022-11-20T05:51:02;29.80;;;12.98;;
26598;SDS011;14240;51.064;16.612;2022-11-20T05:53:29;36.50;;;14.32;;
26598;SDS011;14240;51.064;16.612;2022-11-20T05:58:24;36.03;;;15.23;;
26598;SDS011;14240;51.064;16.612;2022-11-20T06:00:50;56.03;;;19.95;;
26598;SDS011;14240;51.064;16.612;2022-11-20T06:03:16;61.97;;;23.48;;
26598;SDS011;14240;51.064;16.612;2022-11-20T06:05:42;41.42;;;14.25;;
26598;SDS011;14240;51.064;16.612;2022-11-20T06:08:08;48.33;;;17.88;;
26598;SDS011;14240;51.064;16.612;2022-11-20T06:10:34;46.47;;;16.67;;
26598;SDS011;14240;51.064;16.612;2022-11-20T06:12:59;51.92;;;19.38;;
26598;SDS011;14240;51.064;16.612;2022-11-20T06:15:25;45.55;;;18.75;;
26598;SDS011;14240;51.064;16.612;2022-11-20T06:17:54;57.78;;;22.08;;
26598;SDS011;14240;51.064;16.612;2022-11-20T06:20:21;43.63;;;16.55;;
26598;SDS011;14240;51.064;16.612;2022-11-20T06:22:47;32.45;;;13.52;;
26598;SDS011;14240;51.064;16.612;2022-11-20T06:25:13;52.97;;;18.63;;
26598;SDS011;14240;51.064;16.612;2022-11-20T06:27:39;54.67;;;19.02;;
26598;SDS011;14240;51.064;16.612;2022-11-20T06:30:05;50.10;;;20.48;;
26598;SDS011;14240;51.064;16.612;2022-11-20T06:32:31;45.90;;;17.52;;
26598;SDS011;14240;51.064;16.612;2022-11-20T06:34:57;38.53;;;14.90;;
26598;SDS011;14240;51.064;16.612;2022-11-20T06:37:23;36.45;;;14.65;;
26598;SDS011;14240;51.064;16.612;2022-11-20T06:39:49;50.17;;;16.35;;
26598;SDS011;14240;51.064;16.612;2022-11-20T06:42:14;56.47;;;20.08;;
26598;SDS011;14240;51.064;16.612;2022-11-20T06:44:40;51.42;;;17.60;;
26598;SDS011;14240;51.064;16.612;2022-11-20T06:47:05;40.40;;;16.08;;
26598;SDS011;14240;51.064;16.612;2022-11-20T06:49:31;40.67;;;16.95;;
26598;SDS011;14240;51.064;16.612;2022-11-20T06:51:59;46.13;;;15.88;;
26598;SDS011;14240;51.064;16.612;2022-11-20T06:54:24;41.00;;;15.50;;
26598;SDS011;14240;51.064;16.612;2022-11-20T06:56:50;47.75;;;18.10;;
26598;SDS011;14240;51.064;16.612;2022-11-20T06:59:16;48.58;;;18.83;;
26598;SDS011;14240;51.064;16.612;2022-11-20T07:01:41;41.47;;;16.88;;
26598;SDS011;14240;51.064;16.612;2022-11-20T07:04:07;61.75;;;22.15;;
26598;SDS011;14240;51.064;16.612;2022-11-20T07:06:33;74.57;;;29.45;;
26598;SDS011;14240;51.064;16.612;2022-11-20T07:08:58;77.93;;;33.17;;
26598;SDS011;14240;51.064;16.612;2022-11-20T07:11:24;48.90;;;22.63;;
26598;SDS011;14240;51.064;16.612;2022-11-20T07:13:50;45.95;;;19.80;;
26598;SDS011;14240;51.064;16.612;2022-11-20T07:16:16;51.17;;;21.52;;
26598;SDS011;14240;51.064;16.612;2022-11-20T07:18:42;52.28;;;24.23;;
26598;SDS011;14240;51.064;16.612;2022-11-20T07:21:08;57.95;;;22.40;;
26598;SDS011;14240;51.064;16.612;2022-11-20T07:23:35;63.10;;;26.02;;
26598;SDS011;14240;51.064;16.612;2022-11-20T07:26:04;82.22;;;28.10;;
26598;SDS011;14240;51.064;16.612;2022-11-20T07:28:34;105.68;;;36.35;;
26598;SDS011;14240;51.064;16.612;2022-11-20T07:31:01;149.70;;;50.20;;
26598;SDS011;14240;51.064;16.612;2022-11-20T07:33:27;106.70;;;38.28;;
26598;SDS011;14240;51.064;16.612;2022-11-20T07:35:53;93.78;;;35.22;;
26598;SDS011;14240;51.064;16.612;2022-11-20T07:38:18;117.78;;;40.72;;
26598;SDS011;14240;51.064;16.612;2022-11-20T07:40:44;82.13;;;32.88;;
26598;SDS011;14240;51.064;16.612;2022-11-20T07:43:10;58.33;;;26.42;;
26598;SDS011;14240;51.064;16.612;2022-11-20T07:45:36;67.22;;;25.15;;
26598;SDS011;14240;51.064;16.612;2022-11-20T07:48:01;64.00;;;24.52;;
26598;SDS011;14240;51.064;16.612;2022-11-20T07:50:27;47.67;;;20.25;;
26598;SDS011;14240;51.064;16.612;2022-11-20T07:52:59;49.35;;;20.63;;
26598;SDS011;14240;51.064;16.612;2022-11-20T07:55:31;45.15;;;20.30;;
26598;SDS011;14240;51.064;16.612;2022-11-20T07:57:57;41.63;;;18.33;;
26598;SDS011;14240;51.064;16.612;2022-11-20T08:00:23;47.70;;;19.27;;
26598;SDS011;14240;51.064;16.612;2022-11-20T08:02:50;41.90;;;16.50;;
26598;SDS011;14240;51.064;16.612;2022-11-20T08:05:15;53.58;;;19.88;;
26598;SDS011;14240;51.064;16.612;2022-11-20T08:07:42;50.25;;;20.20;;
26598;SDS011;14240;51.064;16.612;2022-11-20T08:10:09;53.28;;;21.17;;
26598;SDS011;14240;51.064;16.612;2022-11-20T08:15:27;63.17;;;22.13;;
26598;SDS011;14240;51.064;16.612;2022-11-20T08:17:58;54.53;;;21.67;;
26598;SDS011;14240;51.064;16.612;2022-11-20T08:20:25;54.45;;;19.88;;
26598;SDS011;14240;51.064;16.612;2022-11-20T08:22:50;43.10;;;17.27;;
26598;SDS011;14240;51.064;16.612;2022-11-20T08:25:16;39.63;;;18.27;;
26598;SDS011;14240;51.064;16.612;2022-11-20T08:27:42;43.67;;;16.73;;
26598;SDS011;14240;51.064;16.612;2022-11-20T08:30:07;48.00;;;19.45;;
26598;SDS011;14240;51.064;16.612;2022-11-20T08:32:34;43.67;;;17.75;;
26598;SDS011;14240;51.064;16.612;2022-11-20T08:35:02;46.17;;;18.55;;
26598;SDS011;14240;51.064;16.612;2022-11-20T08:37:28;44.30;;;16.42;;
26598;SDS011;14240;51.064;16.612;2022-11-20T08:39:53;57.88;;;21.75;;
26598;SDS011;14240;51.064;16.612;2022-11-20T08:42:21;49.65;;;20.70;;
26598;SDS011;14240;51.064;16.612;2022-11-20T08:44:47;42.72;;;18.35;;
26598;SDS011;14240;51.064;16.612;2022-11-20T08:47:13;43.78;;;19.10;;
26598;SDS011;14240;51.064;16.612;2022-11-20T08:49:38;42.08;;;18.60;;
26598;SDS011;14240;51.064;16.612;2022-11-20T08:52:04;44.70;;;21.23;;
26598;SDS011;14240;51.064;16.612;2022-11-20T08:54:30;45.15;;;20.10;;
26598;SDS011;14240;51.064;16.612;2022-11-20T08:56:56;44.25;;;20.58;;
26598;SDS011;14240;51.064;16.612;2022-11-20T08:59:21;45.13;;;23.63;;
26598;SDS011;14240;51.064;16.612;2022-11-20T09:01:47;47.17;;;23.33;;
26598;SDS011;14240;51.064;16.612;2022-11-20T09:04:13;49.50;;;26.42;;
26598;SDS011;14240;51.064;16.612;2022-11-20T09:06:39;69.00;;;31.08;;
26598;SDS011;14240;51.064;16.612;2022-11-20T09:09:05;49.00;;;27.08;;
26598;SDS011;14240;51.064;16.612;2022-11-20T09:11:31;55.05;;;30.90;;
26598;SDS011;14240;51.064;16.612;2022-11-20T09:13:57;43.10;;;24.13;;
26598;SDS011;14240;51.064;16.612;2022-11-20T09:16:22;47.90;;;26.38;;
26598;SDS011;14240;51.064;16.612;2022-11-20T09:18:49;44.35;;;24.13;;
26598;SDS011;14240;51.064;16.612;2022-11-20T09:21:15;45.95;;;26.40;;
26598;SDS011;14240;51.064;16.612;2022-11-20T09:23:41;46.88;;;27.08;;
26598;SDS011;14240;51.064;16.612;2022-11-20T09:26:09;45.67;;;25.40;;
26598;SDS011;14240;51.064;16.612;2022-11-20T09:28:38;39.20;;;21.77;;
26598;SDS011;14240;51.064;16.612;2022-11-20T09:31:08;37.88;;;20.88;;
26598;SDS011;14240;51.064;16.612;2022-11-20T09:33:40;34.70;;;20.52;;
26598;SDS011;14240;51.064;16.612;2022-11-20T09:36:06;30.10;;;17.17;;
26598;SDS011;14240;51.064;16.612;2022-11-20T09:38:32;34.25;;;20.27;;
26598;SDS011;14240;51.064;16.612;2022-11-20T09:40:58;28.23;;;16.92;;
26598;SDS011;14240;51.064;16.612;2022-11-20T09:49:01;40.08;;;21.98;;
26598;SDS011;14240;51.064;16.612;2022-11-20T09:51:50;42.40;;;25.95;;
26598;SDS011;14240;51.064;16.612;2022-11-20T09:54:30;43.33;;;25.70;;
26598;SDS011;14240;51.064;16.612;2022-11-20T09:57:42;38.67;;;23.50;;
26598;SDS011;14240;51.064;16.612;2022-11-20T09:59:59;41.55;;;25.02;;
26598;SDS011;14240;51.064;16.612;2022-11-20T10:02:41;36.63;;;23.02;;
26598;SDS011;14240;51.064;16.612;2022-11-20T10:05:15;39.20;;;23.30;;
26598;SDS011;14240;51.064;16.612;2022-11-20T10:07:43;35.33;;;23.10;;
26598;SDS011;14240;51.064;16.612;2022-11-20T10:10:50;100.82;;;62.20;;
26598;SDS011;14240;51.064;16.612;2022-11-20T10:30:03;48.50;;;25.73;;
26598;SDS011;14240;51.064;16.612;2022-11-20T10:32:35;42.55;;;23.05;;
26598;SDS011;14240;51.064;16.612;2022-11-20T10:35:10;41.28;;;22.38;;
26598;SDS011;14240;51.064;16.612;2022-11-20T10:37:46;44.30;;;22.40;;
26598;SDS011;14240;51.064;16.612;2022-11-20T10:40:20;41.63;;;20.48;;
26598;SDS011;14240;51.064;16.612;2022-11-20T10:47:52;43.30;;;21.20;;
26598;SDS011;14240;51.064;16.612;2022-11-20T10:50:21;42.65;;;21.55;;
26598;SDS011;14240;51.064;16.612;2022-11-20T10:52:54;46.03;;;19.65;;
26598;SDS011;14240;51.064;16.612;2022-11-20T10:55:47;45.67;;;21.33;;
26598;SDS011;14240;51.064;16.612;2022-11-20T10:58:36;33.10;;;17.00;;
26598;SDS011;14240;51.064;16.612;2022-11-20T11:01:19;30.92;;;15.45;;
26598;SDS011;14240;51.064;16.612;2022-11-20T11:03:49;34.28;;;16.80;;
26598;SDS011;14240;51.064;16.612;2022-11-20T11:09:01;33.67;;;14.93;;
26598;SDS011;14240;51.064;16.612;2022-11-20T11:11:33;58.47;;;22.15;;
26598;SDS011;14240;51.064;16.612;2022-11-20T11:14:41;66.35;;;27.92;;
26598;SDS011;14240;51.064;16.612;2022-11-20T11:16:52;54.95;;;22.30;;
26598;SDS011;14240;51.064;16.612;2022-11-20T11:21:55;71.40;;;26.00;;
26598;SDS011;14240;51.064;16.612;2022-11-20T11:24:28;38.45;;;18.10;;
26598;SDS011;14240;51.064;16.612;2022-11-20T11:26:58;36.20;;;20.33;;
26598;SDS011;14240;51.064;16.612;2022-11-20T11:29:30;47.35;;;19.58;;
26598;SDS011;14240;51.064;16.612;2022-11-20T11:32:07;43.90;;;18.65;;
26598;SDS011;14240;51.064;16.612;2022-11-20T11:34:40;35.20;;;14.80;;
26598;SDS011;14240;51.064;16.612;2022-11-20T11:37:17;26.23;;;12.48;;
26598;SDS011;14240;51.064;16.612;2022-11-20T11:39:46;38.63;;;16.95;;
26598;SDS011;14240;51.064;16.612;2022-11-20T11:42:13;40.03;;;14.93;;
26598;SDS011;14240;51.064;16.612;2022-11-20T11:44:43;30.35;;;13.18;;
26598;SDS011;14240;51.064;16.612;2022-11-20T11:47:35;45.77;;;17.73;;
26598;SDS011;14240;51.064;16.612;2022-11-20T11:52:36;32.80;;;14.82;;
26598;SDS011;14240;51.064;16.612;2022-11-20T11:55:47;35.00;;;15.52;;
26598;SDS011;14240;51.064;16.612;2022-11-20T12:03:44;38.78;;;21.05;;
26598;SDS011;14240;51.064;16.612;2022-11-20T12:06:20;31.20;;;13.60;;
26598;SDS011;14240;51.064;16.612;2022-11-20T12:08:48;41.13;;;16.13;;
26598;SDS011;14240;51.064;16.612;2022-11-20T12:11:37;33.50;;;16.13;;
26598;SDS011;14240;51.064;16.612;2022-11-20T12:14:17;33.95;;;15.40;;
26598;SDS011;14240;51.064;16.612;2022-11-20T12:16:48;32.38;;;14.45;;
26598;SDS011;14240;51.064;16.612;2022-11-20T12:19:15;31.20;;;14.57;;
26598;SDS011;14240;51.064;16.612;2022-11-20T12:27:24;33.42;;;14.48;;
26598;SDS011;14240;51.064;16.612;2022-11-20T12:32:26;36.22;;;15.40;;
26598;SDS011;14240;51.064;16.612;2022-11-20T12:41:03;31.92;;;14.30;;
26598;SDS011;14240;51.064;16.612;2022-11-20T12:43:28;29.08;;;13.52;;
26598;SDS011;14240;51.064;16.612;2022-11-20T12:49:12;31.73;;;14.95;;
26598;SDS011;14240;51.064;16.612;2022-11-20T12:57:05;35.00;;;17.35;;
26598;SDS011;14240;51.064;16.612;2022-11-20T13:08:03;29.40;;;13.00;;
26598;SDS011;14240;51.064;16.612;2022-11-20T13:10:49;28.95;;;12.55;;
26598;SDS011;14240;51.064;16.612;2022-11-20T13:15:50;30.95;;;12.85;;
26598;SDS011;14240;51.064;16.612;2022-11-20T13:18:22;36.75;;;16.17;;
26598;SDS011;14240;51.064;16.612;2022-11-20T13:20:48;37.17;;;17.05;;
26598;SDS011;14240;51.064;16.612;2022-11-20T13:23:24;35.25;;;15.15;;
26598;SDS011;14240;51.064;16.612;2022-11-20T13:25:51;50.72;;;23.42;;
26598;SDS011;14240;51.064;16.612;2022-11-20T13:28:29;27.23;;;11.07;;
26598;SDS011;14240;51.064;16.612;2022-11-20T13:30:56;25.55;;;10.98;;
26598;SDS011;14240;51.064;16.612;2022-11-20T13:33:25;29.58;;;12.57;;
26598;SDS011;14240;51.064;16.612;2022-11-20T13:36:01;34.30;;;13.52;;
26598;SDS011;14240;51.064;16.612;2022-11-20T13:38:46;32.22;;;14.73;;
26598;SDS011;14240;51.064;16.612;2022-11-20T13:43:57;45.72;;;18.83;;
26598;SDS011;14240;51.064;16.612;2022-11-20T13:46:36;37.92;;;17.48;;
26598;SDS011;14240;51.064;16.612;2022-11-20T13:51:48;40.78;;;18.23;;
26598;SDS011;14240;51.064;16.612;2022-11-20T13:54:22;47.00;;;18.70;;
26598;SDS011;14240;51.064;16.612;2022-11-20T13:59:42;63.60;;;26.83;;
26598;SDS011;14240;51.064;16.612;2022-11-20T14:02:21;75.38;;;32.40;;
26598;SDS011;14240;51.064;16.612;2022-11-20T14:04:50;49.05;;;23.17;;
26598;SDS011;14240;51.064;16.612;2022-11-20T14:07:22;34.92;;;16.05;;
26598;SDS011;14240;51.064;16.612;2022-11-20T14:09:52;25.95;;;14.15;;
26598;SDS011;14240;51.064;16.612;2022-11-20T14:12:21;44.55;;;17.00;;
26598;SDS011;14240;51.064;16.612;2022-11-20T14:14:52;27.95;;;13.25;;
26598;SDS011;14240;51.064;16.612;2022-11-20T14:19:59;1407.30;;;246.40;;
26598;SDS011;14240;51.064;16.612;2022-11-20T14:22:28;840.90;;;137.00;;
26598;SDS011;14240;51.064;16.612;2022-11-20T14:25:01;75.20;;;25.48;;
26598;SDS011;14240;51.064;16.612;2022-11-20T14:27:27;110.78;;;45.35;;
26598;SDS011;14240;51.064;16.612;2022-11-20T14:29:53;116.20;;;52.20;;
26598;SDS011;14240;51.064;16.612;2022-11-20T14:32:20;394.95;;;103.05;;
26598;SDS011;14240;51.064;16.612;2022-11-20T14:34:48;832.42;;;200.68;;
26598;SDS011;14240;51.064;16.612;2022-11-20T14:37:19;249.90;;;120.75;;
26598;SDS011;14240;51.064;16.612;2022-11-20T14:39:49;193.50;;;100.95;;
26598;SDS011;14240;51.064;16.612;2022-11-20T14:42:21;141.35;;;73.00;;
26598;SDS011;14240;51.064;16.612;2022-11-20T14:44:49;77.63;;;38.83;;
26598;SDS011;14240;51.064;16.612;2022-11-20T14:47:21;44.20;;;21.65;;
26598;SDS011;14240;51.064;16.612;2022-11-20T14:49:50;36.45;;;17.38;;
26598;SDS011;14240;51.064;16.612;2022-11-20T14:54:51;41.10;;;16.65;;
26598;SDS011;14240;51.064;16.612;2022-11-20T14:57:34;40.03;;;16.55;;
26598;SDS011;14240;51.064;16.612;2022-11-20T15:02:43;53.55;;;21.80;;
26598;SDS011;14240;51.064;16.612;2022-11-20T15:05:13;50.67;;;21.47;;
26598;SDS011;14240;51.064;16.612;2022-11-20T15:07:41;83.80;;;29.05;;
26598;SDS011;14240;51.064;16.612;2022-11-20T15:12:54;111.25;;;36.10;;
26598;SDS011;14240;51.064;16.612;2022-11-20T15:15:27;70.43;;;25.02;;
26598;SDS011;14240;51.064;16.612;2022-11-20T15:18:04;67.05;;;23.80;;
26598;SDS011;14240;51.064;16.612;2022-11-20T15:20:35;58.70;;;23.45;;
26598;SDS011;14240;51.064;16.612;2022-11-20T15:23:01;58.25;;;23.48;;
26598;SDS011;14240;51.064;16.612;2022-11-20T15:25:27;50.33;;;21.80;;
26598;SDS011;14240;51.064;16.612;2022-11-20T15:27:54;51.40;;;22.98;;
26598;SDS011;14240;51.064;16.612;2022-11-20T15:30:21;90.97;;;32.95;;
26598;SDS011;14240;51.064;16.612;2022-11-20T15:32:47;101.80;;;42.97;;
26598;SDS011;14240;51.064;16.612;2022-11-20T15:35:14;106.13;;;46.65;;
26598;SDS011;14240;51.064;16.612;2022-11-20T15:37:40;113.13;;;48.53;;
26598;SDS011;14240;51.064;16.612;2022-11-20T15:40:06;110.78;;;47.90;;
26598;SDS011;14240;51.064;16.612;2022-11-20T15:42:33;66.15;;;27.65;;
26598;SDS011;14240;51.064;16.612;2022-11-20T15:45:00;61.03;;;20.98;;
26598;SDS011;14240;51.064;16.612;2022-11-20T15:47:32;79.57;;;28.75;;
26598;SDS011;14240;51.064;16.612;2022-11-20T15:49:59;66.03;;;25.73;;
26598;SDS011;14240;51.064;16.612;2022-11-20T15:52:25;78.93;;;26.50;;
26598;SDS011;14240;51.064;16.612;2022-11-20T15:54:51;65.35;;;25.30;;
26598;SDS011;14240;51.064;16.612;2022-11-20T15:57:17;59.08;;;26.23;;
26598;SDS011;14240;51.064;16.612;2022-11-20T15:59:43;59.75;;;26.50;;
26598;SDS011;14240;51.064;16.612;2022-11-20T16:02:09;52.90;;;21.52;;
26598;SDS011;14240;51.064;16.612;2022-11-20T16:04:36;53.55;;;21.30;;
26598;SDS011;14240;51.064;16.612;2022-11-20T16:07:01;60.40;;;22.92;;
26598;SDS011;14240;51.064;16.612;2022-11-20T16:09:27;65.45;;;25.67;;